createdAt,value
2022-10-21T00:01:36.612Z,1.91
2022-10-21T00:07:36.594Z,1.64
2022-10-21T00:13:36.608Z,1.42
2022-10-21T00:19:36.590Z,1.60
2022-10-21T00:25:36.606Z,1.70
2022-10-21T00:31:36.602Z,1.56
2022-10-21T00:37:36.774Z,1.08
2022-10-21T00:43:36.635Z,1.19
2022-10-21T00:49:36.588Z,1.31
2022-10-21T00:55:36.603Z,1.36
2022-10-21T01:01:36.676Z,1.49
2022-10-21T01:07:40.322Z,2.15
2022-10-21T01:13:36.676Z,0.97
2022-10-21T01:19:36.627Z,1.55
2022-10-21T01:25:36.645Z,1.38
2022-10-21T01:31:36.665Z,0.85
2022-10-21T01:37:37.179Z,1.30
2022-10-21T01:43:36.670Z,2.03
2022-10-21T01:49:36.644Z,0.66
2022-10-21T01:55:36.663Z,1.74
2022-10-21T02:01:36.672Z,0.87
2022-10-21T02:07:36.694Z,1.02
2022-10-21T02:13:36.711Z,1.05
2022-10-21T02:19:36.691Z,0.43
2022-10-21T02:25:36.715Z,0.99
2022-10-21T02:31:36.705Z,0.73
2022-10-21T02:37:36.737Z,0.69
2022-10-21T02:43:36.757Z,0.90
2022-10-21T02:49:36.734Z,0.56
2022-10-21T02:55:36.730Z,0.69
2022-10-21T03:01:37.025Z,0.44
2022-10-21T03:25:36.757Z,1.65
2022-10-21T03:31:36.770Z,0.64
2022-10-21T03:37:36.768Z,1.61
2022-10-21T03:43:36.779Z,0.88
2022-10-21T03:49:36.791Z,1.00
2022-10-21T03:55:36.787Z,1.12
2022-10-21T04:01:36.808Z,1.01
2022-10-21T04:07:36.803Z,0.75
2022-10-21T04:13:36.841Z,1.09
2022-10-21T04:19:36.826Z,1.36
2022-10-21T04:25:36.824Z,0.47
2022-10-21T04:31:36.805Z,0.50
2022-10-21T04:37:36.834Z,1.69
2022-10-21T04:43:36.857Z,1.04
2022-10-21T04:49:36.833Z,0.69
2022-10-21T04:55:36.838Z,0.53
2022-10-21T05:01:36.842Z,0.58
2022-10-21T05:07:36.853Z,0.62
2022-10-21T05:13:36.838Z,0.74
2022-10-21T05:19:36.855Z,0.26
2022-10-21T05:25:36.865Z,0.55
2022-10-21T05:31:36.828Z,1.19
2022-10-21T05:37:36.905Z,0.24
2022-10-21T05:43:36.883Z,0.32
2022-10-21T05:49:36.889Z,0.24
2022-10-21T05:55:36.884Z,0.46
2022-10-21T06:01:36.996Z,1.00
2022-10-21T06:07:37.085Z,1.52
2022-10-21T06:13:36.924Z,0.93
2022-10-21T06:19:36.908Z,1.61
2022-10-21T06:25:36.910Z,1.13
2022-10-21T06:31:36.908Z,0.96
2022-10-21T06:37:37.423Z,0.98
2022-10-21T06:43:36.931Z,0.68
2022-10-21T06:49:36.937Z,0.87
2022-10-21T06:55:36.936Z,0.77
2022-10-21T07:01:55.293Z,0.83
2022-10-21T07:07:37.291Z,1.50
2022-10-21T07:13:37.009Z,1.17
2022-10-21T07:19:36.963Z,0.89
2022-10-21T07:25:36.978Z,1.62
2022-10-21T07:31:36.975Z,0.76
2022-10-21T07:37:37.389Z,0.48
2022-10-21T07:43:37.009Z,0.95
2022-10-21T07:49:36.994Z,1.36
2022-10-21T07:55:36.986Z,0.82
2022-10-21T08:01:37.099Z,1.84
2022-10-21T08:07:36.992Z,0.67
2022-10-21T08:13:37.006Z,0.69
2022-10-21T08:19:36.985Z,0.34
2022-10-21T08:25:37.022Z,0.30
2022-10-21T08:31:37.029Z,1.67
2022-10-21T08:43:37.042Z,0.67
2022-10-21T08:49:37.052Z,0.80
2022-10-21T08:55:37.038Z,0.91
2022-10-21T09:01:37.035Z,1.51
2022-10-21T09:07:37.242Z,1.60
2022-10-21T09:13:37.041Z,1.65
2022-10-21T09:19:37.065Z,0.64
2022-10-21T09:25:37.057Z,0.92
2022-10-21T09:31:37.057Z,1.93
2022-10-21T09:37:37.298Z,1.09
2022-10-21T09:43:37.130Z,1.70
2022-10-21T09:50:05.376Z,1.03
2022-10-21T09:55:37.098Z,1.36
2022-10-21T10:01:37.139Z,1.73
2022-10-21T10:07:37.102Z,1.64
2022-10-21T10:13:37.100Z,2.10
2022-10-21T10:19:37.170Z,0.65
2022-10-21T10:25:37.074Z,1.03
2022-10-21T10:31:37.111Z,0.43
2022-10-21T10:37:37.140Z,0.65
2022-10-21T10:43:37.172Z,2.07
2022-10-21T10:49:37.152Z,2.31
2022-10-21T10:55:37.154Z,2.03
2022-10-21T11:01:37.199Z,1.95
2022-10-21T11:07:37.613Z,0.99
2022-10-21T11:13:40.066Z,1.36
2022-10-21T11:19:37.136Z,1.32
2022-10-21T11:25:37.201Z,1.69
2022-10-21T11:31:43.935Z,1.23
2022-10-21T11:37:37.612Z,1.53
2022-10-21T11:43:37.221Z,1.85
2022-10-21T11:49:37.491Z,1.99
2022-10-21T11:55:37.213Z,0.71
2022-10-21T12:01:37.286Z,1.20
2022-10-21T12:07:37.216Z,2.14
2022-10-21T12:13:37.232Z,1.67
2022-10-21T12:19:37.256Z,1.08
2022-10-21T12:25:37.254Z,1.29
2022-10-21T12:31:37.244Z,1.24
2022-10-21T12:37:37.543Z,1.73
2022-10-21T12:43:37.252Z,1.87
2022-10-21T12:49:37.282Z,2.10
2022-10-21T12:55:37.283Z,1.97
2022-10-21T13:01:37.291Z,1.39
2022-10-21T13:07:37.288Z,0.69
2022-10-21T13:13:37.268Z,1.06
2022-10-21T13:19:37.278Z,2.38
2022-10-21T13:25:37.266Z,2.85
2022-10-21T13:31:37.298Z,2.26
2022-10-21T13:37:37.588Z,1.19
2022-10-21T13:43:37.322Z,0.51
2022-10-21T13:49:37.305Z,0.67
2022-10-21T13:55:37.323Z,0.92
2022-10-21T14:01:37.390Z,0.68
2022-10-21T14:07:37.720Z,0.43
2022-10-21T14:13:37.353Z,0.09
2022-10-21T14:19:37.382Z,1.02
2022-10-21T14:25:37.365Z,0.69
2022-10-21T14:31:37.372Z,1.26
2022-10-21T14:37:37.406Z,1.98
2022-10-21T14:43:37.370Z,1.62
2022-10-21T14:49:37.391Z,0.98
2022-10-21T14:55:37.378Z,1.07
2022-10-21T15:01:37.387Z,0.57
2022-10-21T15:07:37.418Z,0.55
2022-10-21T15:13:37.400Z,0.10
2022-10-21T15:19:37.425Z,0.03
2022-10-21T15:31:37.429Z,0.07
2022-10-21T15:37:37.833Z,0.16
2022-10-21T15:43:37.486Z,0.16
2022-10-21T15:49:37.428Z,0.16
2022-10-21T15:55:37.445Z,0.00
2022-10-21T16:01:37.485Z,0.02
2022-10-21T16:07:37.421Z,0.01
2022-10-21T16:13:37.479Z,0.06
2022-10-21T16:19:37.462Z,0.00
2022-10-21T16:25:37.467Z,0.37
2022-10-21T16:31:37.485Z,0.01
2022-10-21T16:37:37.488Z,0.08
2022-10-21T16:43:37.482Z,0.00
2022-10-21T16:49:37.479Z,0.17
2022-10-21T16:55:37.497Z,0.04
2022-10-21T17:01:37.487Z,0.32
2022-10-21T17:07:38.005Z,0.00
2022-10-21T17:13:37.571Z,0.00
2022-10-21T17:19:37.537Z,0.00
2022-10-21T17:25:37.580Z,0.00
2022-10-21T17:31:37.552Z,0.01
2022-10-21T17:37:37.843Z,0.00
2022-10-21T17:43:37.532Z,0.00
2022-10-21T17:49:37.514Z,0.00
2022-10-21T17:55:37.542Z,0.00
2022-10-21T18:01:37.573Z,0.00
2022-10-21T18:07:37.868Z,0.21
2022-10-21T18:13:37.572Z,0.02
2022-10-21T18:19:37.578Z,0.00
2022-10-21T18:25:37.597Z,0.00
2022-10-21T18:31:37.590Z,0.00
2022-10-21T18:37:38.045Z,0.01
2022-10-21T18:43:37.604Z,0.30
2022-10-21T18:49:37.638Z,0.08
2022-10-21T18:55:37.618Z,0.00
2022-10-21T19:01:37.636Z,0.00
2022-10-21T19:25:37.642Z,0.00
2022-10-21T19:31:38.572Z,0.00
2022-10-21T19:37:37.662Z,0.00
2022-10-21T19:43:37.651Z,0.09
2022-10-21T19:49:37.638Z,0.54
2022-10-21T19:55:37.629Z,0.41
2022-10-21T20:01:37.733Z,0.00
2022-10-21T20:07:37.934Z,0.00
2022-10-21T20:13:37.659Z,0.01
2022-10-21T20:19:37.668Z,0.00
2022-10-21T20:25:37.667Z,0.00
2022-10-21T20:31:37.684Z,0.02
2022-10-21T20:37:38.187Z,0.07
2022-10-21T20:43:37.708Z,0.00
2022-10-21T20:49:37.697Z,0.07
2022-10-21T20:55:37.696Z,0.00
2022-10-21T21:01:41.601Z,0.01
2022-10-21T21:07:38.143Z,0.03
2022-10-21T21:13:41.986Z,0.00
2022-10-21T21:19:37.732Z,0.00
2022-10-21T21:25:37.695Z,0.00
2022-10-21T21:31:37.729Z,0.15
2022-10-21T21:37:37.746Z,0.23
2022-10-21T21:43:37.761Z,0.33
2022-10-21T21:49:37.745Z,0.67
2022-10-21T21:55:37.737Z,0.22
2022-10-21T22:01:37.918Z,0.00
2022-10-21T22:07:37.905Z,0.05
2022-10-21T22:13:37.747Z,0.00
2022-10-21T22:19:37.770Z,0.00
2022-10-21T22:25:37.752Z,0.02
2022-10-21T22:31:37.786Z,0.00
2022-10-21T22:37:38.138Z,0.00
2022-10-21T22:43:37.805Z,0.00
2022-10-21T22:49:37.807Z,0.00
2022-10-21T22:55:37.789Z,0.16
2022-10-21T23:01:37.815Z,0.36
2022-10-21T23:07:37.829Z,0.12
2022-10-21T23:13:37.996Z,0.18
2022-10-21T23:19:37.841Z,0.00
2022-10-21T23:25:37.877Z,0.00
2022-10-21T23:31:37.840Z,0.00
2022-10-21T23:37:38.099Z,0.16
2022-10-21T23:43:37.840Z,0.19
2022-10-21T23:49:37.861Z,0.02
2022-10-21T23:55:37.873Z,0.00
